仙台空港の過去48時間の天気

仙台空港 (Sendai)

現在時刻: 9/19 08:15 JST (9/18 23:15 UTC) 以下の時間は現地時間です。

過去48時間のMETAR気象情報
時間 風向 風速(m/s) 視程 気温(℃) 湿度(%) 気圧(hPa) 天気現象
19 08:00 北北西 2 10km以上 21 78 1013
19 07:00 3 10km以上 19 88 1013
19 06:00 北西 2 10km以上 17 94 1013
19 05:30 2 10km以上 17 94 1013 地霧
RJSS 182300Z 34004KT 310V020 9999 FEW005 21/17 Q1013
RJSS 182200Z 36005KT 9999 FEW005 19/17 Q1013
RJSS 182100Z 32003KT 9999 FEW005 17/16 Q1013
RJSS 182030Z 36003KT 9999 MIFG FEW005 17/16 Q1013 RMK 1ST005 A2992